Estación de El Carmen
Ultimos registro cada 15 minutos 26
| N° | Estación | Fecha / Hora | Temperatura | Humedad | Lluvia | Velocidad | Dirección | Radiación | Presion |
| 26 | El Carmen | 31-08-2026 06:15 | 6,6 | 94,4 | 0 | 0 | 122 | 0,6 | 980,6 |
| 25 | El Carmen | 31-08-2026 06:00 | 6,5 | 94,9 | 0 | 0 | 122 | 0,6 | 980,3 |
| 24 | El Carmen | 31-08-2026 05:45 | 5,6 | 94,2 | 0 | 0 | 122 | 0,6 | 980,3 |
| 23 | El Carmen | 31-08-2026 05:30 | 6 | 94,2 | 0 | 0 | 122 | 0,6 | 980,3 |
| 22 | El Carmen | 31-08-2026 05:15 | 5,7 | 93,4 | 0 | 0 | 122 | 0,6 | 980,1 |
| 21 | El Carmen | 31-08-2026 05:00 | 6,7 | 92,5 | 0 | 0 | 122 | 0,6 | 980 |
| 20 | El Carmen | 31-08-2026 04:45 | 7,2 | 91,4 | 0 | 0 | 128 | 0,6 | 980 |
| 19 | El Carmen | 31-08-2026 04:30 | 7,4 | 92,9 | 0 | 0 | 135 | 0,6 | 979,9 |
| 18 | El Carmen | 31-08-2026 04:15 | 7,1 | 93,5 | 0 | 0 | 135 | 0,6 | 979,9 |
| 17 | El Carmen | 31-08-2026 04:00 | 6,7 | 93 | 0 | 0 | 135 | 0,6 | 979,9 |
| 16 | El Carmen | 31-08-2026 03:45 | 7,1 | 92,3 | 0 | 0 | 135 | 0,6 | 980 |
| 15 | El Carmen | 31-08-2026 03:30 | 7,3 | 91,3 | 0 | 0 | 135 | 0,6 | 979,8 |
| 14 | El Carmen | 31-08-2026 03:15 | 8 | 91,1 | 0 | 0 | 135 | 0,6 | 979,7 |
| 13 | El Carmen | 31-08-2026 03:00 | 8,1 | 91,4 | 0 | 0 | 135 | 0,6 | 979,3 |
| 12 | El Carmen | 31-08-2026 02:45 | 8,1 | 91,4 | 0 | 0 | 135 | 0,6 | 979,4 |
| 11 | El Carmen | 31-08-2026 02:30 | 8,8 | 90,9 | 0 | 0 | 135 | 0,6 | 979,3 |
| 10 | El Carmen | 31-08-2026 02:15 | 9 | 90,5 | 0 | 0 | 135 | 0,6 | 979,4 |
| 9 | El Carmen | 31-08-2026 02:00 | 9,8 | 87,3 | 0 | 0 | 135 | 0,6 | 979,2 |
| 8 | El Carmen | 31-08-2026 01:45 | 10 | 88,3 | 0,4 | 0 | 135 | 0,6 | 979,3 |
| 7 | El Carmen | 31-08-2026 01:30 | 10,3 | 87,2 | 0,4 | 0 | 135 | 0,6 | 979,3 |
| 6 | El Carmen | 31-08-2026 01:15 | 10,3 | 85 | 0 | 0 | 135 | 0,6 | 979,1 |
| 5 | El Carmen | 31-08-2026 01:00 | 10,3 | 84,8 | 0 | 0 | 135 | 0,6 | 978,9 |
| 4 | El Carmen | 31-08-2026 00:45 | 10,6 | 83,6 | 0 | 0 | 135 | 0,6 | 978,9 |
| 3 | El Carmen | 31-08-2026 00:30 | 10,3 | 84,2 | 0 | 0 | 135 | 0,6 | 978,7 |
| 2 | El Carmen | 31-08-2026 00:15 | 9,9 | 86 | 0 | 0 | 135 | 0,6 | 978,6 |
| 1 | El Carmen | 31-08-2026 00:00 | 10,1 | 83,6 | 0 | 0 | 135 | 0,6 | 978,5 |